createdAt,value
2022-12-11T03:51:02.229Z,-1.41
2022-12-11T04:21:24.815Z,-1.48
2022-12-11T04:51:29.626Z,-1.14
2022-12-11T05:21:35.351Z,-0.96
2022-12-11T05:51:41.279Z,-1.81
2022-12-11T06:21:46.552Z,-1.66
2022-12-11T06:51:50.696Z,-1.66
2022-12-11T07:21:54.873Z,-1.77
2022-12-11T07:51:59.005Z,-1.59
2022-12-11T08:22:03.314Z,-0.84
2022-12-11T08:52:08.190Z,-0.51
2022-12-11T09:22:12.909Z,-0.91
2022-12-11T10:18:31.110Z,0.16
2022-12-11T10:48:35.512Z,0.26
2022-12-11T11:18:41.809Z,-0.07
2022-12-11T11:48:52.469Z,0.25
2022-12-11T12:19:04.964Z,0.55
2022-12-11T12:49:14.064Z,-0.04
2022-12-11T13:19:29.776Z,0.14
2022-12-11T13:49:36.870Z,0.28
2022-12-11T14:19:41.136Z,0.48
2022-12-11T14:49:48.879Z,0.55
2022-12-11T15:19:54.992Z,0.27
2022-12-11T15:50:01.932Z,0.11
2022-12-11T16:20:07.576Z,-0.29
2022-12-11T16:50:13.924Z,-0.06
2022-12-11T17:20:18.274Z,-0.02
2022-12-11T17:50:22.380Z,-0.02
2022-12-11T18:20:26.645Z,-0.19
2022-12-11T18:50:30.810Z,0.06
2022-12-11T19:20:57.969Z,-0.03
2022-12-11T19:51:06.033Z,-0.09
2022-12-11T20:21:13.131Z,-0.40
2022-12-11T20:51:25.673Z,-0.18
2022-12-11T21:21:32.550Z,-0.19
2022-12-11T21:51:43.959Z,-0.24
2022-12-11T22:21:50.993Z,-0.47
2022-12-11T22:51:57.246Z,-0.41
2022-12-11T23:22:01.282Z,-0.58
2022-12-11T23:52:05.878Z,-0.58
